Main page
METAR-TAF:

METAR-TAF

Airports :

Dimapur Airport

Dimapur, India

latitude: 25-53-02N, longitude: 093-46-16E, elevation: 148 m

Current weather observation

The report was made 18 hours and 18 minutes ago, at 07:00 UTC
Wind 8 kt from the North/Northeast
Temperature 30°C
Humidity 43%
Pressure 1010 hPa
Visibility: 4000 m
Few clouds at a height of 2000 ft
Scattered clouds at a height of 10000 ft

METAR: VEMR 230700Z 02008KT 4000 FEW020 SCT100 30/16 Q1010

Time: 06:48 (01:18 UTC)

Forecast

The report was made 2 hours and 18 minutes ago, at 23:00 UTC
Forecast valid from 24 at 00 UTC to 24 at 09 UTC
Wind 5 kt from the Northeast
Visibility: 3000 m
Few clouds at a height of 2000 ft
mist, haze
Becoming
from 24 at 07 UTC to 24 at 09 UTC
Wind 6 kt from the North/Northwest
Visibility: 5000 m
haze

TAF: VEMR 232300Z 2400/2409 04005KT 3000 BR HZ FEW020 BECMG 2407/2409 34006KT 5000 HZ

Weather observations and forecasts of more than 4000 airports (METAR and TAF reports).

The available stations are represented by yellow and red dots on the map.

Hover mouse over dot to see the name of the station.

Then click to see weather observations and forecasts.

To change the map : click on the green buttons with a black cross to zoom in, on the green button with a dash to zoom out, or on the green arrows for adjacent maps.


METAR-TAF: